createdAt,value
2018-06-19T00:01:51.294Z,14.00
2018-06-19T00:04:19.609Z,13.90
2018-06-19T00:06:47.909Z,13.90
2018-06-19T00:09:16.256Z,13.90
2018-06-19T00:11:44.560Z,13.90
2018-06-19T00:14:12.885Z,13.80
2018-06-19T00:16:41.252Z,13.80
2018-06-19T00:19:09.790Z,13.80
2018-06-19T00:21:57.629Z,13.80
2018-06-19T00:24:25.989Z,13.70
2018-06-19T00:26:54.296Z,13.70
2018-06-19T00:29:22.617Z,13.60
2018-06-19T00:31:50.917Z,13.60
2018-06-19T00:34:19.231Z,13.60
2018-06-19T00:36:47.550Z,13.60
2018-06-19T00:39:15.891Z,13.60
2018-06-19T00:41:44.233Z,13.60
2018-06-19T00:44:12.570Z,13.60
2018-06-19T00:46:43.188Z,13.50
2018-06-19T00:49:11.695Z,13.50
2018-06-19T00:51:40.011Z,13.50
2018-06-19T00:54:08.304Z,13.50
2018-06-19T00:56:48.036Z,13.60
2018-06-19T00:59:16.353Z,13.70
2018-06-19T01:01:44.689Z,13.60
2018-06-19T01:04:13.090Z,13.50
2018-06-19T01:06:41.425Z,13.40
2018-06-19T01:09:10.245Z,13.40
2018-06-19T01:11:38.848Z,13.40
2018-06-19T01:14:07.143Z,13.40
2018-06-19T01:16:35.498Z,13.30
2018-06-19T01:19:03.801Z,13.20
2018-06-19T01:21:32.139Z,13.20
2018-06-19T01:24:00.435Z,13.20
2018-06-19T01:26:28.757Z,13.30
2018-06-19T01:28:57.061Z,13.30
2018-06-19T01:31:25.378Z,13.20
2018-06-19T01:33:53.701Z,13.20
2018-06-19T01:36:22.225Z,13.20
2018-06-19T01:38:50.890Z,13.20
2018-06-19T01:41:19.592Z,13.20
2018-06-19T01:43:47.894Z,13.20
2018-06-19T01:46:16.207Z,13.10
2018-06-19T01:48:44.501Z,13.10
2018-06-19T01:51:12.818Z,13.10
2018-06-19T01:53:41.122Z,13.10
2018-06-19T01:56:09.441Z,13.10
2018-06-19T01:58:38.020Z,13.10
2018-06-19T02:01:06.349Z,13.10
2018-06-19T02:03:34.650Z,13.00
2018-06-19T02:06:02.981Z,12.90
2018-06-19T02:08:31.279Z,12.90
2018-06-19T02:10:59.584Z,12.90
2018-06-19T02:13:27.872Z,12.90
2018-06-19T02:15:56.189Z,12.90
2018-06-19T02:18:24.508Z,12.90
2018-06-19T02:20:52.820Z,12.90
2018-06-19T02:23:21.126Z,12.90
2018-06-19T02:25:49.461Z,12.90
2018-06-19T02:28:17.769Z,12.90
2018-06-19T02:30:46.112Z,13.00
2018-06-19T02:33:14.405Z,13.00
2018-06-19T02:35:42.737Z,13.10
2018-06-19T02:38:11.056Z,13.30
2018-06-19T02:40:39.443Z,13.40
2018-06-19T02:43:07.742Z,13.40
2018-06-19T02:45:36.061Z,13.40
2018-06-19T02:48:04.373Z,13.40
2018-06-19T02:50:32.704Z,13.40
2018-06-19T02:53:01.017Z,13.20
2018-06-19T02:55:29.533Z,13.20
2018-06-19T02:57:57.853Z,13.10
2018-06-19T03:00:26.225Z,13.00
2018-06-19T03:02:54.514Z,12.90
2018-06-19T03:05:22.880Z,12.80
2018-06-19T03:07:51.204Z,12.70
2018-06-19T03:10:19.529Z,12.70
2018-06-19T03:12:47.857Z,12.80
2018-06-19T03:15:16.153Z,12.80
2018-06-19T03:17:44.561Z,12.80
2018-06-19T03:20:12.860Z,12.80
2018-06-19T03:22:41.172Z,12.90
2018-06-19T03:25:09.469Z,12.90
2018-06-19T03:27:37.785Z,13.00
2018-06-19T03:30:06.100Z,13.00
2018-06-19T03:32:34.463Z,13.00
2018-06-19T03:35:02.769Z,13.00
2018-06-19T03:37:31.086Z,13.00
2018-06-19T03:39:59.387Z,13.00
2018-06-19T03:42:27.697Z,13.00
2018-06-19T03:44:56.012Z,13.10
2018-06-19T03:47:24.348Z,13.10
2018-06-19T03:49:52.693Z,13.10
2018-06-19T03:52:21.035Z,13.10
2018-06-19T03:54:49.338Z,13.30
2018-06-19T03:57:17.661Z,13.40
2018-06-19T04:02:14.035Z,13.50
2018-06-19T04:04:42.332Z,13.60
2018-06-19T04:07:10.661Z,13.70
2018-06-19T04:09:38.957Z,13.80
2018-06-19T04:12:07.327Z,13.90
2018-06-19T04:14:35.637Z,14.00
2018-06-19T04:17:03.991Z,14.00
2018-06-19T04:19:32.291Z,14.10
2018-06-19T04:22:00.610Z,14.20
2018-06-19T04:24:28.913Z,14.30
2018-06-19T04:26:57.224Z,14.40
2018-06-19T04:29:25.520Z,14.50
2018-06-19T04:31:53.846Z,14.60
2018-06-19T04:34:22.160Z,14.80
2018-06-19T04:36:50.517Z,14.90
2018-06-19T04:39:18.864Z,15.00
2018-06-19T04:41:47.177Z,15.10
2018-06-19T04:44:15.486Z,15.20
2018-06-19T04:46:43.873Z,15.30
2018-06-19T04:49:12.185Z,15.30
2018-06-19T04:51:40.533Z,15.40
2018-06-19T04:54:08.855Z,15.50
2018-06-19T04:56:37.153Z,15.60
2018-06-19T04:59:05.469Z,15.70
2018-06-19T05:01:33.804Z,15.70
2018-06-19T05:04:02.146Z,15.80
2018-06-19T05:06:30.460Z,15.80
2018-06-19T05:08:58.780Z,15.80
2018-06-19T05:11:27.066Z,15.90
2018-06-19T05:13:55.380Z,16.00
2018-06-19T05:16:23.673Z,16.00
2018-06-19T05:18:52.014Z,16.10
2018-06-19T05:21:20.312Z,16.10
2018-06-19T05:23:48.646Z,16.10
2018-06-19T05:26:16.943Z,16.30
2018-06-19T05:28:45.248Z,16.40
2018-06-19T05:31:13.542Z,16.60
2018-06-19T05:33:41.856Z,17.00
2018-06-19T05:36:10.157Z,17.50
2018-06-19T05:38:38.476Z,18.00
2018-06-19T05:41:06.841Z,18.10
2018-06-19T05:43:35.467Z,18.40
2018-06-19T05:46:04.846Z,18.20
2018-06-19T05:48:33.301Z,17.80
2018-06-19T05:51:01.608Z,17.80
2018-06-19T05:53:29.936Z,17.70
2018-06-19T05:55:58.237Z,18.10
2018-06-19T05:58:26.559Z,18.30
2018-06-19T06:00:54.862Z,18.80
2018-06-19T06:03:24.678Z,19.00
2018-06-19T06:05:53.097Z,19.30
2018-06-19T06:08:21.329Z,19.70
2018-06-19T06:10:49.982Z,20.10
2018-06-19T06:13:18.301Z,20.10
2018-06-19T06:15:46.583Z,19.90
2018-06-19T06:18:14.940Z,19.30
2018-06-19T06:20:43.231Z,19.30
2018-06-19T06:23:11.565Z,19.00
2018-06-19T06:25:39.860Z,18.80
2018-06-19T06:28:08.179Z,19.00
2018-06-19T06:30:36.467Z,19.00
2018-06-19T06:33:04.777Z,19.10
2018-06-19T06:35:33.064Z,19.20
2018-06-19T06:38:01.377Z,19.30
2018-06-19T06:40:29.831Z,19.30
2018-06-19T06:42:58.146Z,19.20
2018-06-19T06:45:26.437Z,19.40
2018-06-19T06:47:54.756Z,19.50
2018-06-19T06:50:23.103Z,19.60
2018-06-19T06:52:51.642Z,19.70
2018-06-19T06:55:19.936Z,19.60
2018-06-19T06:57:48.264Z,19.60
2018-06-19T07:00:16.576Z,19.60
2018-06-19T07:02:44.885Z,19.50
2018-06-19T07:05:13.209Z,19.60
2018-06-19T07:07:41.499Z,19.50
2018-06-19T07:10:09.976Z,19.60
2018-06-19T07:12:38.920Z,19.70
2018-06-19T07:15:07.265Z,19.60
2018-06-19T07:17:35.912Z,19.60
2018-06-19T07:20:04.574Z,19.50
2018-06-19T07:22:32.915Z,19.50
2018-06-19T07:25:01.211Z,19.60
2018-06-19T07:27:29.514Z,19.60
2018-06-19T07:29:57.820Z,19.70
2018-06-19T07:32:26.121Z,19.70
2018-06-19T07:34:54.448Z,19.80
2018-06-19T07:37:22.737Z,19.90
2018-06-19T07:42:19.083Z,19.80
2018-06-19T07:47:15.428Z,19.40
2018-06-19T07:52:11.789Z,20.00
2018-06-19T07:54:40.091Z,19.90
2018-06-19T07:57:08.388Z,19.80
2018-06-19T07:59:36.710Z,19.70
2018-06-19T08:02:05.006Z,19.50
2018-06-19T08:04:33.320Z,19.30
2018-06-19T08:07:05.841Z,19.30
2018-06-19T08:09:34.149Z,19.30
2018-06-19T08:12:02.489Z,19.30
2018-06-19T08:14:30.801Z,19.20
2018-06-19T08:16:59.100Z,19.10
2018-06-19T08:19:27.436Z,19.10
2018-06-19T08:21:55.725Z,19.10
2018-06-19T08:24:24.043Z,19.50
2018-06-19T08:26:52.332Z,20.00
2018-06-19T08:29:20.633Z,20.20
2018-06-19T08:31:48.929Z,20.00
2018-06-19T08:34:17.237Z,19.90
2018-06-19T08:36:45.785Z,19.90
2018-06-19T08:39:14.804Z,20.50
2018-06-19T08:41:44.274Z,21.10
2018-06-19T08:44:12.901Z,21.70
2018-06-19T08:46:42.116Z,21.40
2018-06-19T08:49:11.513Z,20.80
2018-06-19T08:51:39.813Z,20.50
2018-06-19T08:54:08.120Z,20.40
2018-06-19T08:56:36.846Z,20.60
2018-06-19T08:59:05.133Z,20.90
2018-06-19T09:01:34.100Z,21.00
2018-06-19T09:04:02.773Z,20.80
2018-06-19T09:06:31.087Z,20.80
2018-06-19T09:08:59.392Z,20.70
2018-06-19T09:11:27.721Z,20.70
2018-06-19T09:13:56.104Z,20.90
2018-06-19T09:16:24.418Z,21.30
2018-06-19T09:18:53.005Z,21.70
2018-06-19T09:21:21.316Z,22.00
2018-06-19T09:23:49.793Z,22.30
2018-06-19T09:26:18.101Z,22.60
2018-06-19T09:28:46.388Z,22.30
2018-06-19T09:31:14.716Z,22.30
2018-06-19T09:33:42.986Z,22.10
2018-06-19T09:36:11.297Z,22.10
2018-06-19T09:38:39.592Z,22.50
2018-06-19T09:41:07.925Z,22.80
2018-06-19T09:43:36.213Z,22.50
2018-06-19T09:46:04.605Z,22.20
2018-06-19T09:48:32.904Z,22.00
2018-06-19T09:51:01.251Z,22.10
2018-06-19T09:53:29.641Z,22.20
2018-06-19T09:55:58.032Z,22.20
2018-06-19T09:58:26.606Z,22.50
2018-06-19T10:00:55.220Z,22.80
2018-06-19T10:03:23.653Z,23.20
2018-06-19T10:05:51.958Z,23.50
2018-06-19T10:08:20.265Z,23.40
2018-06-19T10:10:48.596Z,22.90
2018-06-19T10:13:16.901Z,22.90
2018-06-19T10:15:45.275Z,22.70
2018-06-19T10:18:13.597Z,22.40
2018-06-19T10:20:41.905Z,22.20
2018-06-19T10:23:10.198Z,22.00
2018-06-19T10:25:38.510Z,22.00
2018-06-19T10:28:06.804Z,21.80
2018-06-19T10:30:35.129Z,21.70
2018-06-19T10:33:03.416Z,21.60
2018-06-19T10:35:31.725Z,21.80
2018-06-19T10:38:00.061Z,21.90
2018-06-19T10:40:28.355Z,21.90
2018-06-19T10:42:56.678Z,21.90
2018-06-19T10:45:24.974Z,22.40
2018-06-19T10:47:53.295Z,22.70
2018-06-19T10:50:21.581Z,22.40
2018-06-19T10:52:50.039Z,22.70
2018-06-19T10:55:18.277Z,22.70
2018-06-19T10:57:46.607Z,22.50
2018-06-19T11:00:14.897Z,22.20
2018-06-19T11:02:43.232Z,22.10
2018-06-19T11:05:11.579Z,22.10
2018-06-19T11:07:39.850Z,22.20
2018-06-19T11:10:08.142Z,22.30
2018-06-19T11:12:36.469Z,22.60
2018-06-19T11:15:04.978Z,22.70
2018-06-19T11:17:33.291Z,22.70
2018-06-19T11:20:01.691Z,22.40
2018-06-19T11:22:30.020Z,22.40
2018-06-19T11:24:58.322Z,22.20
2018-06-19T11:27:26.634Z,22.10
2018-06-19T11:29:54.918Z,22.40
2018-06-19T11:32:23.224Z,22.70
2018-06-19T11:34:51.545Z,22.80
2018-06-19T11:37:19.873Z,22.80
2018-06-19T11:39:48.165Z,22.40
2018-06-19T11:42:16.476Z,22.70
2018-06-19T11:44:44.795Z,22.70
2018-06-19T11:47:13.156Z,23.40
2018-06-19T11:49:41.449Z,23.40
2018-06-19T11:52:09.841Z,23.50
2018-06-19T11:54:38.153Z,23.90
2018-06-19T11:57:06.472Z,23.80
2018-06-19T11:59:34.776Z,24.50
2018-06-19T12:02:03.085Z,25.20
2018-06-19T12:04:31.378Z,24.70
2018-06-19T12:06:59.692Z,24.20
2018-06-19T12:09:27.982Z,24.60
2018-06-19T12:11:56.297Z,26.00
2018-06-19T12:14:24.587Z,26.50
2018-06-19T12:16:52.896Z,26.40
2018-06-19T12:19:21.237Z,26.30
2018-06-19T12:21:49.551Z,25.90
2018-06-19T12:24:17.894Z,25.10
2018-06-19T12:26:46.245Z,24.70
2018-06-19T12:29:14.592Z,24.30
2018-06-19T12:31:42.887Z,23.80
2018-06-19T12:34:11.208Z,23.50
2018-06-19T12:36:39.498Z,23.30
2018-06-19T12:39:09.749Z,23.20
2018-06-19T12:41:44.157Z,23.20
2018-06-19T12:44:12.549Z,23.20
2018-06-19T12:46:41.517Z,23.20
2018-06-19T12:49:10.226Z,23.30
2018-06-19T12:51:59.836Z,23.30
2018-06-19T12:54:42.613Z,23.20
2018-06-19T12:57:10.906Z,23.90
2018-06-19T12:59:39.220Z,24.60
2018-06-19T13:02:07.533Z,24.70
2018-06-19T13:04:47.333Z,24.90
2018-06-19T13:07:15.634Z,26.10
2018-06-19T13:09:43.970Z,26.60
2018-06-19T13:12:23.780Z,26.90
2018-06-19T13:14:52.093Z,27.10
2018-06-19T13:17:31.847Z,27.60
2018-06-19T13:20:11.484Z,26.70
2018-06-19T13:22:39.804Z,25.90
2018-06-19T13:25:08.093Z,25.50
2018-06-19T13:27:36.415Z,25.30
2018-06-19T13:30:15.990Z,25.10
2018-06-19T13:32:44.305Z,24.90
2018-06-19T13:35:12.608Z,24.70
2018-06-19T13:37:40.932Z,24.60
2018-06-19T13:41:25.560Z,24.30
2018-06-19T13:44:13.321Z,24.20
2018-06-19T13:46:42.017Z,23.90
2018-06-19T13:49:10.327Z,23.70
2018-06-19T13:51:38.645Z,23.60
2018-06-19T13:54:06.985Z,23.50
2018-06-19T13:57:11.678Z,23.30
2018-06-19T13:59:40.385Z,23.30
2018-06-19T14:02:08.717Z,23.40
2018-06-19T14:04:37.028Z,23.50
2018-06-19T14:07:06.221Z,23.30
2018-06-19T14:09:47.109Z,23.40
2018-06-19T14:12:26.465Z,23.50
2018-06-19T14:14:56.054Z,23.70
2018-06-19T14:17:25.949Z,23.80
2018-06-19T14:19:55.265Z,23.70
2018-06-19T14:22:24.438Z,23.60
2018-06-19T14:24:52.749Z,23.60
2018-06-19T14:27:21.069Z,23.60
2018-06-19T14:29:49.394Z,23.50
2018-06-19T14:32:17.954Z,23.40
2018-06-19T14:34:46.264Z,23.50
2018-06-19T14:37:14.552Z,23.70
2018-06-19T14:39:42.860Z,23.90
2018-06-19T14:42:11.465Z,23.90
2018-06-19T14:44:39.940Z,23.80
2018-06-19T14:47:08.243Z,23.70
2018-06-19T14:49:36.565Z,23.70
2018-06-19T14:52:04.908Z,23.70
2018-06-19T14:54:33.218Z,23.60
2018-06-19T14:57:01.544Z,23.60
2018-06-19T14:59:29.868Z,23.60
2018-06-19T15:01:58.187Z,23.60
2018-06-19T15:04:26.505Z,23.50
2018-06-19T15:06:54.819Z,23.60
2018-06-19T15:09:23.132Z,23.60
2018-06-19T15:11:51.430Z,23.60
2018-06-19T15:14:19.734Z,23.50
2018-06-19T15:16:48.593Z,23.50
2018-06-19T15:19:16.949Z,23.40
2018-06-19T15:21:45.284Z,23.50
2018-06-19T15:24:13.603Z,23.50
2018-06-19T15:26:41.982Z,23.50
2018-06-19T15:29:10.329Z,23.30
2018-06-19T15:31:38.641Z,23.40
2018-06-19T15:34:06.995Z,23.50
2018-06-19T15:36:35.285Z,23.40
2018-06-19T15:39:05.039Z,23.30
2018-06-19T15:41:33.332Z,23.30
2018-06-19T15:44:01.657Z,23.20
2018-06-19T15:46:29.982Z,23.10
2018-06-19T15:48:58.309Z,23.20
2018-06-19T15:51:26.605Z,23.20
2018-06-19T15:53:54.926Z,23.20
2018-06-19T15:56:23.261Z,23.10
2018-06-19T15:58:51.628Z,23.20
2018-06-19T16:01:19.948Z,23.20
2018-06-19T16:03:48.245Z,23.20
2018-06-19T16:06:16.621Z,23.20
2018-06-19T16:08:44.907Z,23.00
2018-06-19T16:11:13.229Z,23.00
2018-06-19T16:13:41.534Z,23.00
2018-06-19T16:16:09.846Z,23.00
2018-06-19T16:18:38.176Z,23.00
2018-06-19T16:21:06.546Z,23.00
2018-06-19T16:23:34.844Z,23.00
2018-06-19T16:26:03.169Z,22.90
2018-06-19T16:28:31.462Z,22.90
2018-06-19T16:30:59.795Z,22.90
2018-06-19T16:33:28.124Z,23.00
2018-06-19T16:35:56.448Z,23.00
2018-06-19T16:38:24.736Z,23.00
2018-06-19T16:40:53.068Z,23.00
2018-06-19T16:45:49.404Z,23.00
2018-06-19T16:48:17.769Z,23.00
2018-06-19T16:50:46.079Z,23.10
2018-06-19T16:53:14.366Z,23.00
2018-06-19T16:55:42.697Z,22.80
2018-06-19T16:58:10.980Z,22.70
2018-06-19T17:00:39.289Z,22.70
2018-06-19T17:03:07.577Z,22.80
2018-06-19T17:05:35.884Z,22.80
2018-06-19T17:08:04.201Z,22.80
2018-06-19T17:10:32.565Z,22.70
2018-06-19T17:13:00.877Z,22.70
2018-06-19T17:15:29.187Z,22.80
2018-06-19T17:17:57.482Z,22.70
2018-06-19T17:20:25.817Z,22.70
2018-06-19T17:22:54.111Z,22.60
2018-06-19T17:25:22.436Z,22.50
2018-06-19T17:27:50.730Z,22.40
2018-06-19T17:30:19.067Z,22.40
2018-06-19T17:32:47.356Z,22.40
2018-06-19T17:35:15.671Z,22.30
2018-06-19T17:37:43.978Z,22.30
2018-06-19T17:40:12.296Z,22.30
2018-06-19T17:42:40.590Z,22.20
2018-06-19T17:45:08.920Z,22.30
2018-06-19T17:47:37.221Z,22.20
2018-06-19T17:50:05.573Z,22.20
2018-06-19T17:52:33.877Z,22.00
2018-06-19T17:55:02.325Z,22.00
2018-06-19T17:57:30.635Z,22.10
2018-06-19T17:59:58.953Z,22.30
2018-06-19T18:02:27.242Z,22.30
2018-06-19T18:04:55.562Z,22.10
2018-06-19T18:07:23.892Z,21.90
2018-06-19T18:09:52.184Z,21.80
2018-06-19T18:12:20.597Z,21.60
2018-06-19T18:14:48.892Z,21.60
2018-06-19T18:17:17.209Z,21.60
2018-06-19T18:19:45.532Z,21.60
2018-06-19T18:22:14.165Z,21.70
2018-06-19T18:24:42.500Z,21.70
2018-06-19T18:27:10.805Z,21.50
2018-06-19T18:29:39.100Z,21.50
2018-06-19T18:32:07.433Z,21.50
2018-06-19T18:34:35.737Z,21.40
2018-06-19T18:37:04.066Z,21.30
2018-06-19T18:39:32.364Z,21.30
2018-06-19T18:42:00.692Z,21.20
2018-06-19T18:44:28.982Z,21.20
2018-06-19T18:46:57.305Z,21.10
2018-06-19T18:49:26.008Z,21.00
2018-06-19T18:51:54.319Z,20.90
2018-06-19T18:54:22.616Z,20.80
2018-06-19T18:56:50.928Z,20.70
2018-06-19T18:59:19.225Z,20.60
2018-06-19T19:01:47.537Z,20.50
2018-06-19T19:04:15.824Z,20.30
2018-06-19T19:06:44.144Z,20.20
2018-06-19T19:09:12.506Z,20.10
2018-06-19T19:11:40.820Z,19.90
2018-06-19T19:14:09.117Z,19.80
2018-06-19T19:16:42.804Z,19.70
2018-06-19T19:19:13.536Z,19.70
2018-06-19T19:21:41.868Z,19.70
2018-06-19T19:24:10.177Z,19.50
2018-06-19T19:26:43.802Z,19.50
2018-06-19T19:29:17.321Z,19.30
2018-06-19T19:31:45.644Z,19.30
2018-06-19T19:34:13.964Z,19.20
2018-06-19T19:36:47.646Z,19.10
2018-06-19T19:39:21.413Z,19.00
2018-06-19T19:41:49.750Z,18.90
2018-06-19T19:44:18.047Z,18.90
2018-06-19T19:46:51.821Z,18.90
2018-06-19T19:49:20.135Z,18.80
2018-06-19T19:51:48.445Z,18.70
2018-06-19T19:54:16.738Z,18.70
2018-06-19T19:56:50.412Z,18.70
2018-06-19T19:59:18.709Z,18.60
2018-06-19T20:01:47.044Z,18.40
2018-06-19T20:04:15.340Z,18.30
2018-06-19T20:06:43.661Z,18.20
2018-06-19T20:09:11.961Z,18.10
2018-06-19T20:11:40.269Z,18.10
2018-06-19T20:14:08.573Z,18.00
2018-06-19T20:16:36.889Z,17.90
2018-06-19T20:19:05.176Z,17.80
2018-06-19T20:21:33.516Z,17.80
2018-06-19T20:24:01.808Z,17.80
2018-06-19T20:28:58.150Z,17.80
2018-06-19T20:31:26.467Z,17.70
2018-06-19T20:33:54.785Z,17.60
2018-06-19T20:36:23.096Z,17.60
2018-06-19T20:38:51.389Z,17.60
2018-06-19T20:41:19.699Z,17.50
2018-06-19T20:43:48.025Z,17.40
2018-06-19T20:46:16.337Z,17.30
2018-06-19T20:48:44.683Z,17.20
2018-06-19T20:51:12.985Z,17.30
2018-06-19T20:53:41.308Z,17.50
2018-06-19T20:56:09.597Z,17.40
2018-06-19T20:58:37.920Z,17.30
2018-06-19T21:01:06.449Z,17.10
2018-06-19T21:03:34.757Z,17.00
2018-06-19T21:06:03.122Z,17.00
2018-06-19T21:08:40.398Z,17.30
2018-06-19T21:11:10.273Z,17.30
2018-06-19T21:13:38.768Z,17.20
2018-06-19T21:16:07.429Z,17.10
2018-06-19T21:18:36.153Z,16.90
2018-06-19T21:21:04.462Z,16.90
2018-06-19T21:23:32.799Z,16.80
2018-06-19T21:26:01.148Z,16.70
2018-06-19T21:28:29.468Z,16.70
2018-06-19T21:30:57.757Z,16.80
2018-06-19T21:33:26.067Z,16.70
2018-06-19T21:35:54.357Z,16.60
2018-06-19T21:38:22.661Z,16.50
2018-06-19T21:40:50.977Z,16.50
2018-06-19T21:43:19.373Z,16.50
2018-06-19T21:45:47.664Z,16.50
2018-06-19T21:48:15.990Z,16.40
2018-06-19T21:50:44.292Z,16.30
2018-06-19T21:53:12.597Z,16.30
2018-06-19T21:55:40.896Z,16.20
2018-06-19T21:58:09.209Z,16.20
2018-06-19T22:00:37.548Z,16.20
2018-06-19T22:03:06.128Z,16.30
2018-06-19T22:05:34.429Z,16.20
2018-06-19T22:08:02.773Z,16.20
2018-06-19T22:10:31.061Z,16.10
2018-06-19T22:12:59.373Z,16.10
2018-06-19T22:15:27.670Z,16.10
2018-06-19T22:17:55.993Z,16.10
2018-06-19T22:20:24.281Z,16.00
2018-06-19T22:22:52.590Z,16.00
2018-06-19T22:25:20.900Z,16.00
2018-06-19T22:27:49.497Z,16.00
2018-06-19T22:30:17.789Z,15.90
2018-06-19T22:32:46.098Z,15.90
2018-06-19T22:35:14.380Z,15.80
2018-06-19T22:37:42.675Z,15.90
2018-06-19T22:40:10.989Z,15.90
2018-06-19T22:45:08.145Z,15.80
2018-06-19T22:47:36.440Z,15.80
2018-06-19T22:50:04.771Z,15.80
2018-06-19T22:52:33.063Z,15.80
2018-06-19T22:55:01.384Z,15.80
2018-06-19T22:57:29.668Z,15.70
2018-06-19T22:59:57.981Z,15.90
2018-06-19T23:02:26.265Z,15.90
2018-06-19T23:04:54.581Z,15.80
2018-06-19T23:07:22.865Z,15.80
2018-06-19T23:09:51.169Z,15.90
2018-06-19T23:12:19.468Z,15.90
2018-06-19T23:14:47.773Z,15.70
2018-06-19T23:17:16.090Z,15.60
2018-06-19T23:19:44.398Z,15.50
2018-06-19T23:22:12.682Z,15.40
2018-06-19T23:24:41.009Z,15.40
2018-06-19T23:27:09.300Z,15.40
2018-06-19T23:29:37.633Z,15.30
2018-06-19T23:32:06.077Z,15.20
2018-06-19T23:34:34.386Z,15.20
2018-06-19T23:37:02.685Z,15.10
2018-06-19T23:39:30.997Z,15.10
2018-06-19T23:41:59.289Z,15.10
2018-06-19T23:44:27.597Z,15.10
2018-06-19T23:46:55.884Z,15.10
2018-06-19T23:51:52.218Z,15.00
2018-06-19T23:54:20.528Z,14.90
2018-06-19T23:59:16.844Z,14.90
